sensor_id;sensor_type;location;lat;lon;timestamp;P1;durP1;ratioP1;P2;durP2;ratioP2
51238;SDS011;38154;47.548;18.828;2022-10-31T00:01:13;16.23;;;8.50;;
51238;SDS011;38154;47.548;18.828;2022-10-31T00:03:41;16.40;;;8.45;;
51238;SDS011;38154;47.548;18.828;2022-10-31T00:06:07;13.77;;;7.53;;
51238;SDS011;38154;47.548;18.828;2022-10-31T00:08:33;19.77;;;8.67;;
51238;SDS011;38154;47.548;18.828;2022-10-31T00:10:59;18.00;;;8.55;;
51238;SDS011;38154;47.548;18.828;2022-10-31T00:13:25;18.10;;;8.37;;
51238;SDS011;38154;47.548;18.828;2022-10-31T00:15:51;15.77;;;7.77;;
51238;SDS011;38154;47.548;18.828;2022-10-31T00:18:17;16.73;;;8.20;;
51238;SDS011;38154;47.548;18.828;2022-10-31T00:20:43;23.87;;;9.33;;
51238;SDS011;38154;47.548;18.828;2022-10-31T00:23:09;22.27;;;10.10;;
51238;SDS011;38154;47.548;18.828;2022-10-31T00:25:37;17.58;;;7.87;;
51238;SDS011;38154;47.548;18.828;2022-10-31T00:28:05;16.45;;;8.68;;
51238;SDS011;38154;47.548;18.828;2022-10-31T00:30:32;17.50;;;7.40;;
51238;SDS011;38154;47.548;18.828;2022-10-31T00:32:58;16.57;;;8.07;;
51238;SDS011;38154;47.548;18.828;2022-10-31T00:35:24;14.33;;;7.13;;
51238;SDS011;38154;47.548;18.828;2022-10-31T00:37:50;17.03;;;8.30;;
51238;SDS011;38154;47.548;18.828;2022-10-31T00:40:17;21.08;;;8.27;;
51238;SDS011;38154;47.548;18.828;2022-10-31T00:42:43;20.23;;;8.50;;
51238;SDS011;38154;47.548;18.828;2022-10-31T00:45:09;19.47;;;7.63;;
51238;SDS011;38154;47.548;18.828;2022-10-31T00:47:36;16.90;;;7.97;;
51238;SDS011;38154;47.548;18.828;2022-10-31T00:50:02;15.13;;;7.93;;
51238;SDS011;38154;47.548;18.828;2022-10-31T00:52:29;26.73;;;8.05;;
51238;SDS011;38154;47.548;18.828;2022-10-31T00:54:55;23.70;;;10.50;;
51238;SDS011;38154;47.548;18.828;2022-10-31T00:57:21;15.53;;;7.77;;
51238;SDS011;38154;47.548;18.828;2022-10-31T00:59:47;18.33;;;8.83;;
51238;SDS011;38154;47.548;18.828;2022-10-31T01:02:13;16.80;;;8.33;;
51238;SDS011;38154;47.548;18.828;2022-10-31T01:04:39;19.93;;;8.13;;
51238;SDS011;38154;47.548;18.828;2022-10-31T01:07:05;17.83;;;8.77;;
51238;SDS011;38154;47.548;18.828;2022-10-31T01:09:31;18.10;;;7.23;;
51238;SDS011;38154;47.548;18.828;2022-10-31T01:11:57;15.27;;;7.23;;
51238;SDS011;38154;47.548;18.828;2022-10-31T01:14:23;15.80;;;7.33;;
51238;SDS011;38154;47.548;18.828;2022-10-31T01:16:48;18.50;;;7.93;;
51238;SDS011;38154;47.548;18.828;2022-10-31T01:19:14;16.70;;;6.90;;
51238;SDS011;38154;47.548;18.828;2022-10-31T01:21:40;18.20;;;6.43;;
51238;SDS011;38154;47.548;18.828;2022-10-31T01:24:06;18.20;;;8.30;;
51238;SDS011;38154;47.548;18.828;2022-10-31T01:26:33;13.85;;;6.62;;
51238;SDS011;38154;47.548;18.828;2022-10-31T01:29:00;14.17;;;7.53;;
51238;SDS011;38154;47.548;18.828;2022-10-31T01:31:29;9.80;;;5.60;;
51238;SDS011;38154;47.548;18.828;2022-10-31T01:33:57;14.38;;;7.47;;
51238;SDS011;38154;47.548;18.828;2022-10-31T01:36:25;13.45;;;6.65;;
51238;SDS011;38154;47.548;18.828;2022-10-31T01:38:53;18.95;;;6.40;;
51238;SDS011;38154;47.548;18.828;2022-10-31T01:41:23;16.30;;;6.43;;
51238;SDS011;38154;47.548;18.828;2022-10-31T01:43:52;14.77;;;6.53;;
51238;SDS011;38154;47.548;18.828;2022-10-31T01:46:48;10.80;;;5.62;;
51238;SDS011;38154;47.548;18.828;2022-10-31T01:51:58;16.98;;;8.05;;
51238;SDS011;38154;47.548;18.828;2022-10-31T01:54:29;17.10;;;7.70;;
51238;SDS011;38154;47.548;18.828;2022-10-31T01:56:59;13.75;;;7.18;;
51238;SDS011;38154;47.548;18.828;2022-10-31T01:59:28;12.43;;;6.07;;
51238;SDS011;38154;47.548;18.828;2022-10-31T02:01:56;14.23;;;6.72;;
51238;SDS011;38154;47.548;18.828;2022-10-31T02:04:22;18.37;;;6.27;;
51238;SDS011;38154;47.548;18.828;2022-10-31T02:06:54;10.95;;;5.80;;
51238;SDS011;38154;47.548;18.828;2022-10-31T02:09:24;13.00;;;6.18;;
51238;SDS011;38154;47.548;18.828;2022-10-31T02:11:52;11.12;;;6.45;;
51238;SDS011;38154;47.548;18.828;2022-10-31T02:14:21;14.70;;;6.68;;
51238;SDS011;38154;47.548;18.828;2022-10-31T02:16:49;9.82;;;5.45;;
51238;SDS011;38154;47.548;18.828;2022-10-31T02:19:17;18.73;;;6.70;;
51238;SDS011;38154;47.548;18.828;2022-10-31T02:21:56;10.25;;;5.70;;
51238;SDS011;38154;47.548;18.828;2022-10-31T02:27:07;13.43;;;6.12;;
51238;SDS011;38154;47.548;18.828;2022-10-31T02:30:00;10.10;;;5.63;;
51238;SDS011;38154;47.548;18.828;2022-10-31T02:32:33;12.40;;;6.53;;
51238;SDS011;38154;47.548;18.828;2022-10-31T02:38:02;15.23;;;6.35;;
51238;SDS011;38154;47.548;18.828;2022-10-31T02:40:41;16.42;;;5.87;;
51238;SDS011;38154;47.548;18.828;2022-10-31T02:43:14;10.98;;;5.45;;
51238;SDS011;38154;47.548;18.828;2022-10-31T02:46:10;14.40;;;5.05;;
51238;SDS011;38154;47.548;18.828;2022-10-31T02:48:40;10.98;;;5.55;;
51238;SDS011;38154;47.548;18.828;2022-10-31T02:51:09;9.57;;;5.05;;
51238;SDS011;38154;47.548;18.828;2022-10-31T02:53:37;10.10;;;5.12;;
51238;SDS011;38154;47.548;18.828;2022-10-31T02:56:05;9.20;;;5.18;;
51238;SDS011;38154;47.548;18.828;2022-10-31T02:58:37;9.63;;;5.10;;
51238;SDS011;38154;47.548;18.828;2022-10-31T03:06:35;9.00;;;5.57;;
51238;SDS011;38154;47.548;18.828;2022-10-31T03:12:00;9.55;;;4.90;;
51238;SDS011;38154;47.548;18.828;2022-10-31T03:20:26;13.45;;;5.53;;
51238;SDS011;38154;47.548;18.828;2022-10-31T03:22:58;10.77;;;5.20;;
51238;SDS011;38154;47.548;18.828;2022-10-31T03:25:27;9.55;;;4.90;;
51238;SDS011;38154;47.548;18.828;2022-10-31T03:27:56;13.02;;;6.95;;
51238;SDS011;38154;47.548;18.828;2022-10-31T03:30:25;10.98;;;4.95;;
51238;SDS011;38154;47.548;18.828;2022-10-31T03:32:51;10.30;;;5.73;;
51238;SDS011;38154;47.548;18.828;2022-10-31T03:35:19;16.80;;;6.05;;
51238;SDS011;38154;47.548;18.828;2022-10-31T03:37:48;13.52;;;5.70;;
51238;SDS011;38154;47.548;18.828;2022-10-31T03:40:17;16.35;;;6.07;;
51238;SDS011;38154;47.548;18.828;2022-10-31T03:42:54;11.75;;;5.60;;
51238;SDS011;38154;47.548;18.828;2022-10-31T03:45:25;15.02;;;6.25;;
51238;SDS011;38154;47.548;18.828;2022-10-31T03:47:54;11.65;;;5.12;;
51238;SDS011;38154;47.548;18.828;2022-10-31T03:50:21;14.77;;;5.97;;
51238;SDS011;38154;47.548;18.828;2022-10-31T03:52:54;14.02;;;6.45;;
51238;SDS011;38154;47.548;18.828;2022-10-31T03:55:28;11.27;;;5.53;;
51238;SDS011;38154;47.548;18.828;2022-10-31T03:57:59;13.88;;;5.20;;
51238;SDS011;38154;47.548;18.828;2022-10-31T04:00:29;11.18;;;5.55;;
51238;SDS011;38154;47.548;18.828;2022-10-31T04:03:01;12.82;;;6.68;;
51238;SDS011;38154;47.548;18.828;2022-10-31T04:05:32;12.77;;;4.90;;
51238;SDS011;38154;47.548;18.828;2022-10-31T04:08:00;10.68;;;5.03;;
51238;SDS011;38154;47.548;18.828;2022-10-31T04:10:28;11.25;;;5.05;;
51238;SDS011;38154;47.548;18.828;2022-10-31T04:12:57;8.93;;;5.57;;
51238;SDS011;38154;47.548;18.828;2022-10-31T04:15:29;11.85;;;5.87;;
51238;SDS011;38154;47.548;18.828;2022-10-31T04:17:57;12.40;;;4.90;;
51238;SDS011;38154;47.548;18.828;2022-10-31T04:20:29;6.60;;;3.95;;
51238;SDS011;38154;47.548;18.828;2022-10-31T04:23:00;8.65;;;4.47;;
51238;SDS011;38154;47.548;18.828;2022-10-31T04:27:52;8.05;;;4.82;;
51238;SDS011;38154;47.548;18.828;2022-10-31T04:30:17;11.67;;;5.90;;
51238;SDS011;38154;47.548;18.828;2022-10-31T04:32:43;8.23;;;4.23;;
51238;SDS011;38154;47.548;18.828;2022-10-31T04:35:09;6.83;;;4.53;;
51238;SDS011;38154;47.548;18.828;2022-10-31T04:37:35;9.37;;;5.07;;
51238;SDS011;38154;47.548;18.828;2022-10-31T04:40:01;8.60;;;4.53;;
51238;SDS011;38154;47.548;18.828;2022-10-31T04:42:30;7.30;;;3.85;;
51238;SDS011;38154;47.548;18.828;2022-10-31T04:44:56;10.57;;;5.20;;
51238;SDS011;38154;47.548;18.828;2022-10-31T04:47:22;12.93;;;5.57;;
51238;SDS011;38154;47.548;18.828;2022-10-31T04:49:48;6.97;;;4.77;;
51238;SDS011;38154;47.548;18.828;2022-10-31T04:52:14;8.90;;;4.50;;
51238;SDS011;38154;47.548;18.828;2022-10-31T04:54:40;9.20;;;4.40;;
51238;SDS011;38154;47.548;18.828;2022-10-31T04:57:05;8.20;;;5.03;;
51238;SDS011;38154;47.548;18.828;2022-10-31T04:59:31;8.63;;;4.57;;
51238;SDS011;38154;47.548;18.828;2022-10-31T05:01:57;9.83;;;4.93;;
51238;SDS011;38154;47.548;18.828;2022-10-31T05:04:23;7.30;;;3.90;;
51238;SDS011;38154;47.548;18.828;2022-10-31T05:06:49;7.73;;;3.63;;
51238;SDS011;38154;47.548;18.828;2022-10-31T05:09:15;7.87;;;3.70;;
51238;SDS011;38154;47.548;18.828;2022-10-31T05:11:40;10.15;;;5.03;;
51238;SDS011;38154;47.548;18.828;2022-10-31T05:14:06;11.90;;;5.47;;
51238;SDS011;38154;47.548;18.828;2022-10-31T05:16:32;11.77;;;5.87;;
51238;SDS011;38154;47.548;18.828;2022-10-31T05:18:58;8.63;;;4.27;;
51238;SDS011;38154;47.548;18.828;2022-10-31T05:21:24;9.53;;;4.87;;
51238;SDS011;38154;47.548;18.828;2022-10-31T05:23:50;11.60;;;5.03;;
51238;SDS011;38154;47.548;18.828;2022-10-31T05:26:16;10.43;;;5.77;;
51238;SDS011;38154;47.548;18.828;2022-10-31T05:28:41;10.67;;;5.63;;
51238;SDS011;38154;47.548;18.828;2022-10-31T05:31:07;11.03;;;5.57;;
51238;SDS011;38154;47.548;18.828;2022-10-31T05:33:33;8.60;;;4.83;;
51238;SDS011;38154;47.548;18.828;2022-10-31T05:35:59;7.93;;;4.50;;
51238;SDS011;38154;47.548;18.828;2022-10-31T05:38:25;7.60;;;4.43;;
51238;SDS011;38154;47.548;18.828;2022-10-31T05:40:53;8.60;;;4.97;;
51238;SDS011;38154;47.548;18.828;2022-10-31T05:43:23;8.52;;;4.50;;
51238;SDS011;38154;47.548;18.828;2022-10-31T05:45:51;12.67;;;4.47;;
51238;SDS011;38154;47.548;18.828;2022-10-31T05:48:18;11.10;;;4.95;;
51238;SDS011;38154;47.548;18.828;2022-10-31T05:50:44;16.63;;;5.87;;
51238;SDS011;38154;47.548;18.828;2022-10-31T05:53:10;9.23;;;4.47;;
51238;SDS011;38154;47.548;18.828;2022-10-31T05:55:36;10.67;;;4.90;;
51238;SDS011;38154;47.548;18.828;2022-10-31T05:58:02;10.47;;;5.13;;
51238;SDS011;38154;47.548;18.828;2022-10-31T06:00:28;10.30;;;5.47;;
51238;SDS011;38154;47.548;18.828;2022-10-31T06:02:57;9.07;;;3.97;;
51238;SDS011;38154;47.548;18.828;2022-10-31T06:05:24;9.45;;;4.55;;
51238;SDS011;38154;47.548;18.828;2022-10-31T06:07:50;10.03;;;4.30;;
51238;SDS011;38154;47.548;18.828;2022-10-31T06:10:16;7.53;;;4.70;;
51238;SDS011;38154;47.548;18.828;2022-10-31T06:12:41;15.60;;;5.53;;
51238;SDS011;38154;47.548;18.828;2022-10-31T06:15:08;15.67;;;5.40;;
51238;SDS011;38154;47.548;18.828;2022-10-31T06:17:34;8.95;;;4.47;;
51238;SDS011;38154;47.548;18.828;2022-10-31T06:20:01;14.00;;;5.07;;
51238;SDS011;38154;47.548;18.828;2022-10-31T06:22:27;7.12;;;4.07;;
51238;SDS011;38154;47.548;18.828;2022-10-31T06:24:53;9.32;;;4.80;;
51238;SDS011;38154;47.548;18.828;2022-10-31T06:27:19;7.07;;;4.30;;
51238;SDS011;38154;47.548;18.828;2022-10-31T06:29:45;13.00;;;4.77;;
51238;SDS011;38154;47.548;18.828;2022-10-31T06:32:12;8.00;;;4.47;;
51238;SDS011;38154;47.548;18.828;2022-10-31T06:37:07;10.85;;;5.12;;
51238;SDS011;38154;47.548;18.828;2022-10-31T06:39:34;9.02;;;3.97;;
51238;SDS011;38154;47.548;18.828;2022-10-31T06:42:01;7.97;;;4.75;;
51238;SDS011;38154;47.548;18.828;2022-10-31T06:44:27;9.18;;;4.32;;
51238;SDS011;38154;47.548;18.828;2022-10-31T06:46:52;14.23;;;4.43;;
51238;SDS011;38154;47.548;18.828;2022-10-31T06:49:19;8.73;;;4.03;;
51238;SDS011;38154;47.548;18.828;2022-10-31T06:51:47;10.00;;;3.70;;
51238;SDS011;38154;47.548;18.828;2022-10-31T06:54:13;6.28;;;3.85;;
51238;SDS011;38154;47.548;18.828;2022-10-31T06:56:39;10.63;;;4.60;;
51238;SDS011;38154;47.548;18.828;2022-10-31T06:59:05;8.77;;;4.57;;
51238;SDS011;38154;47.548;18.828;2022-10-31T07:01:31;8.10;;;4.33;;
51238;SDS011;38154;47.548;18.828;2022-10-31T07:03:57;5.93;;;3.40;;
51238;SDS011;38154;47.548;18.828;2022-10-31T07:06:22;8.67;;;4.07;;
51238;SDS011;38154;47.548;18.828;2022-10-31T07:08:48;9.93;;;4.87;;
51238;SDS011;38154;47.548;18.828;2022-10-31T07:11:14;10.97;;;4.33;;
51238;SDS011;38154;47.548;18.828;2022-10-31T07:13:40;10.23;;;4.30;;
51238;SDS011;38154;47.548;18.828;2022-10-31T07:16:06;6.93;;;3.60;;
51238;SDS011;38154;47.548;18.828;2022-10-31T07:18:32;7.37;;;4.18;;
51238;SDS011;38154;47.548;18.828;2022-10-31T07:20:59;9.25;;;5.15;;
51238;SDS011;38154;47.548;18.828;2022-10-31T07:23:25;10.17;;;4.90;;
51238;SDS011;38154;47.548;18.828;2022-10-31T07:25:54;10.50;;;4.57;;
51238;SDS011;38154;47.548;18.828;2022-10-31T07:28:21;8.52;;;4.43;;
51238;SDS011;38154;47.548;18.828;2022-10-31T07:30:54;9.77;;;4.55;;
51238;SDS011;38154;47.548;18.828;2022-10-31T07:33:21;11.70;;;4.62;;
51238;SDS011;38154;47.548;18.828;2022-10-31T07:35:48;8.68;;;5.37;;
51238;SDS011;38154;47.548;18.828;2022-10-31T07:38:14;8.33;;;4.37;;
51238;SDS011;38154;47.548;18.828;2022-10-31T07:40:40;14.40;;;4.45;;
51238;SDS011;38154;47.548;18.828;2022-10-31T07:43:07;10.07;;;5.12;;
51238;SDS011;38154;47.548;18.828;2022-10-31T07:45:35;7.32;;;4.25;;
51238;SDS011;38154;47.548;18.828;2022-10-31T07:48:01;10.53;;;5.60;;
51238;SDS011;38154;47.548;18.828;2022-10-31T07:50:28;12.48;;;4.82;;
51238;SDS011;38154;47.548;18.828;2022-10-31T07:53:07;10.23;;;4.60;;
51238;SDS011;38154;47.548;18.828;2022-10-31T07:55:35;8.70;;;4.70;;
51238;SDS011;38154;47.548;18.828;2022-10-31T07:58:03;11.60;;;4.65;;
51238;SDS011;38154;47.548;18.828;2022-10-31T08:00:30;12.25;;;4.65;;
51238;SDS011;38154;47.548;18.828;2022-10-31T08:03:01;11.07;;;4.85;;
51238;SDS011;38154;47.548;18.828;2022-10-31T08:05:30;9.90;;;4.90;;
51238;SDS011;38154;47.548;18.828;2022-10-31T08:07:57;11.98;;;5.25;;
51238;SDS011;38154;47.548;18.828;2022-10-31T08:10:23;15.37;;;6.17;;
51238;SDS011;38154;47.548;18.828;2022-10-31T08:12:59;7.20;;;4.47;;
51238;SDS011;38154;47.548;18.828;2022-10-31T08:15:29;13.57;;;5.80;;
51238;SDS011;38154;47.548;18.828;2022-10-31T08:17:55;11.65;;;5.82;;
51238;SDS011;38154;47.548;18.828;2022-10-31T08:20:21;15.00;;;6.10;;
51238;SDS011;38154;47.548;18.828;2022-10-31T08:23:01;10.02;;;4.95;;
51238;SDS011;38154;47.548;18.828;2022-10-31T08:25:29;12.73;;;6.10;;
51238;SDS011;38154;47.548;18.828;2022-10-31T08:27:56;12.70;;;5.43;;
51238;SDS011;38154;47.548;18.828;2022-10-31T08:30:24;8.07;;;4.57;;
51238;SDS011;38154;47.548;18.828;2022-10-31T08:32:59;12.70;;;5.68;;
51238;SDS011;38154;47.548;18.828;2022-10-31T08:35:34;12.73;;;5.78;;
51238;SDS011;38154;47.548;18.828;2022-10-31T08:38:00;12.20;;;5.83;;
51238;SDS011;38154;47.548;18.828;2022-10-31T08:40:26;9.65;;;5.28;;
51238;SDS011;38154;47.548;18.828;2022-10-31T08:42:58;9.20;;;4.68;;
51238;SDS011;38154;47.548;18.828;2022-10-31T08:45:27;10.63;;;5.12;;
51238;SDS011;38154;47.548;18.828;2022-10-31T08:48:00;8.52;;;4.85;;
51238;SDS011;38154;47.548;18.828;2022-10-31T08:50:28;11.48;;;4.57;;
51238;SDS011;38154;47.548;18.828;2022-10-31T08:53:02;9.15;;;4.28;;
51238;SDS011;38154;47.548;18.828;2022-10-31T08:55:30;12.37;;;4.37;;
51238;SDS011;38154;47.548;18.828;2022-10-31T08:57:56;10.43;;;5.47;;
51238;SDS011;38154;47.548;18.828;2022-10-31T09:00:22;7.90;;;4.75;;
51238;SDS011;38154;47.548;18.828;2022-10-31T09:02:54;11.65;;;5.30;;
51238;SDS011;38154;47.548;18.828;2022-10-31T09:05:21;12.40;;;4.85;;
51238;SDS011;38154;47.548;18.828;2022-10-31T09:07:47;10.73;;;5.57;;
51238;SDS011;38154;47.548;18.828;2022-10-31T09:10:12;7.23;;;4.07;;
51238;SDS011;38154;47.548;18.828;2022-10-31T09:12:38;15.50;;;5.30;;
51238;SDS011;38154;47.548;18.828;2022-10-31T09:15:04;12.97;;;5.90;;
51238;SDS011;38154;47.548;18.828;2022-10-31T09:17:31;12.95;;;5.28;;
51238;SDS011;38154;47.548;18.828;2022-10-31T09:19:57;14.20;;;6.67;;
51238;SDS011;38154;47.548;18.828;2022-10-31T09:22:23;12.63;;;6.20;;
51238;SDS011;38154;47.548;18.828;2022-10-31T09:24:49;11.80;;;5.87;;
51238;SDS011;38154;47.548;18.828;2022-10-31T09:27:15;15.20;;;5.57;;
51238;SDS011;38154;47.548;18.828;2022-10-31T09:29:41;12.10;;;5.70;;
51238;SDS011;38154;47.548;18.828;2022-10-31T09:32:07;12.97;;;6.67;;
51238;SDS011;38154;47.548;18.828;2022-10-31T09:34:32;14.43;;;6.27;;
51238;SDS011;38154;47.548;18.828;2022-10-31T09:36:58;17.10;;;8.23;;
51238;SDS011;38154;47.548;18.828;2022-10-31T09:39:24;13.97;;;6.43;;
51238;SDS011;38154;47.548;18.828;2022-10-31T09:42:00;20.67;;;8.30;;
51238;SDS011;38154;47.548;18.828;2022-10-31T09:44:36;18.70;;;6.32;;
51238;SDS011;38154;47.548;18.828;2022-10-31T09:47:20;20.95;;;8.35;;
51238;SDS011;38154;47.548;18.828;2022-10-31T09:52:53;12.55;;;6.05;;
51238;SDS011;38154;47.548;18.828;2022-10-31T09:55:42;16.83;;;6.90;;
51238;SDS011;38154;47.548;18.828;2022-10-31T09:58:28;13.02;;;6.65;;
51238;SDS011;38154;47.548;18.828;2022-10-31T10:00:56;15.50;;;6.95;;
51238;SDS011;38154;47.548;18.828;2022-10-31T10:03:40;45.60;;;19.50;;
51238;SDS011;38154;47.548;18.828;2022-10-31T10:08:46;33.35;;;14.95;;
51238;SDS011;38154;47.548;18.828;2022-10-31T10:11:25;25.77;;;11.20;;
51238;SDS011;38154;47.548;18.828;2022-10-31T10:14:15;13.27;;;6.93;;
51238;SDS011;38154;47.548;18.828;2022-10-31T10:19:48;27.60;;;12.25;;
51238;SDS011;38154;47.548;18.828;2022-10-31T10:22:27;22.50;;;10.27;;
51238;SDS011;38154;47.548;18.828;2022-10-31T10:25:21;21.73;;;10.38;;
51238;SDS011;38154;47.548;18.828;2022-10-31T10:27:50;14.38;;;7.40;;
51238;SDS011;38154;47.548;18.828;2022-10-31T10:30:42;14.80;;;7.22;;
51238;SDS011;38154;47.548;18.828;2022-10-31T10:33:23;17.20;;;6.18;;
51238;SDS011;38154;47.548;18.828;2022-10-31T10:35:59;23.08;;;7.47;;
51238;SDS011;38154;47.548;18.828;2022-10-31T10:38:34;23.60;;;8.18;;
51238;SDS011;38154;47.548;18.828;2022-10-31T10:41:19;16.83;;;7.57;;
51238;SDS011;38154;47.548;18.828;2022-10-31T10:43:48;23.50;;;9.27;;
51238;SDS011;38154;47.548;18.828;2022-10-31T10:49:51;10.68;;;6.00;;
51238;SDS011;38154;47.548;18.828;2022-10-31T10:52:22;14.90;;;7.18;;
51238;SDS011;38154;47.548;18.828;2022-10-31T11:00:18;15.05;;;7.65;;
51238;SDS011;38154;47.548;18.828;2022-10-31T11:02:55;16.37;;;7.72;;
51238;SDS011;38154;47.548;18.828;2022-10-31T11:05:23;21.35;;;7.53;;
51238;SDS011;38154;47.548;18.828;2022-10-31T11:07:51;18.60;;;7.78;;
51238;SDS011;38154;47.548;18.828;2022-10-31T11:10:17;21.53;;;6.93;;
51238;SDS011;38154;47.548;18.828;2022-10-31T11:12:45;21.23;;;7.65;;
51238;SDS011;38154;47.548;18.828;2022-10-31T11:15:24;11.30;;;6.50;;
51238;SDS011;38154;47.548;18.828;2022-10-31T11:17:52;15.27;;;7.10;;
51238;SDS011;38154;47.548;18.828;2022-10-31T11:22:46;18.43;;;7.53;;
51238;SDS011;38154;47.548;18.828;2022-10-31T11:27:45;14.52;;;6.97;;
51238;SDS011;38154;47.548;18.828;2022-10-31T11:32:42;16.27;;;7.80;;
51238;SDS011;38154;47.548;18.828;2022-10-31T11:35:14;17.50;;;8.98;;
51238;SDS011;38154;47.548;18.828;2022-10-31T11:37:44;18.30;;;7.28;;
51238;SDS011;38154;47.548;18.828;2022-10-31T11:40:22;20.65;;;7.87;;
51238;SDS011;38154;47.548;18.828;2022-10-31T11:42:50;22.37;;;7.53;;
51238;SDS011;38154;47.548;18.828;2022-10-31T11:47:49;15.95;;;6.62;;
51238;SDS011;38154;47.548;18.828;2022-10-31T11:53:17;21.23;;;9.38;;
51238;SDS011;38154;47.548;18.828;2022-10-31T11:55:58;19.80;;;8.10;;
51238;SDS011;38154;47.548;18.828;2022-10-31T11:58:28;23.45;;;8.60;;
51238;SDS011;38154;47.548;18.828;2022-10-31T12:00:54;17.97;;;7.73;;
51238;SDS011;38154;47.548;18.828;2022-10-31T12:05:49;23.53;;;9.00;;
51238;SDS011;38154;47.548;18.828;2022-10-31T12:08:39;21.85;;;8.35;;
51238;SDS011;38154;47.548;18.828;2022-10-31T12:14:06;23.67;;;7.43;;
51238;SDS011;38154;47.548;18.828;2022-10-31T12:22:25;24.23;;;9.30;;
51238;SDS011;38154;47.548;18.828;2022-10-31T12:25:04;17.20;;;8.05;;
51238;SDS011;38154;47.548;18.828;2022-10-31T12:27:49;23.70;;;9.80;;
51238;SDS011;38154;47.548;18.828;2022-10-31T12:30:30;23.45;;;8.95;;
51238;SDS011;38154;47.548;18.828;2022-10-31T12:47:12;21.67;;;9.13;;
51238;SDS011;38154;47.548;18.828;2022-10-31T12:58:22;16.12;;;7.20;;
51238;SDS011;38154;47.548;18.828;2022-10-31T13:00:56;19.02;;;8.25;;
51238;SDS011;38154;47.548;18.828;2022-10-31T13:06:34;25.15;;;10.27;;
51238;SDS011;38154;47.548;18.828;2022-10-31T13:11:42;18.37;;;8.98;;
51238;SDS011;38154;47.548;18.828;2022-10-31T13:16:51;27.10;;;9.73;;
51238;SDS011;38154;47.548;18.828;2022-10-31T13:21:57;16.35;;;7.57;;
51238;SDS011;38154;47.548;18.828;2022-10-31T13:24:33;18.60;;;8.18;;
51238;SDS011;38154;47.548;18.828;2022-10-31T13:27:01;20.80;;;7.25;;
51238;SDS011;38154;47.548;18.828;2022-10-31T13:32:36;19.60;;;8.70;;
51238;SDS011;38154;47.548;18.828;2022-10-31T13:35:10;19.92;;;8.38;;
51238;SDS011;38154;47.548;18.828;2022-10-31T13:37:46;20.60;;;8.35;;
51238;SDS011;38154;47.548;18.828;2022-10-31T13:45:28;21.42;;;8.35;;
51238;SDS011;38154;47.548;18.828;2022-10-31T13:48:18;22.43;;;8.77;;
51238;SDS011;38154;47.548;18.828;2022-10-31T13:50:40;18.83;;;7.40;;
51238;SDS011;38154;47.548;18.828;2022-10-31T13:55:45;18.73;;;8.02;;
51238;SDS011;38154;47.548;18.828;2022-10-31T13:58:21;17.83;;;8.15;;
51238;SDS011;38154;47.548;18.828;2022-10-31T14:03:46;21.50;;;7.75;;
51238;SDS011;38154;47.548;18.828;2022-10-31T14:06:21;18.55;;;8.10;;
51238;SDS011;38154;47.548;18.828;2022-10-31T14:08:59;18.33;;;7.32;;
51238;SDS011;38154;47.548;18.828;2022-10-31T14:13:53;21.55;;;8.82;;
51238;SDS011;38154;47.548;18.828;2022-10-31T14:16:23;16.02;;;8.02;;
51238;SDS011;38154;47.548;18.828;2022-10-31T14:21:31;16.30;;;8.10;;
51238;SDS011;38154;47.548;18.828;2022-10-31T14:24:03;21.37;;;8.45;;
51238;SDS011;38154;47.548;18.828;2022-10-31T14:27:00;18.87;;;8.48;;
51238;SDS011;38154;47.548;18.828;2022-10-31T14:31:58;18.33;;;8.07;;
51238;SDS011;38154;47.548;18.828;2022-10-31T14:34:37;17.95;;;7.20;;
51238;SDS011;38154;47.548;18.828;2022-10-31T14:40:01;15.98;;;7.80;;
51238;SDS011;38154;47.548;18.828;2022-10-31T14:42:49;16.55;;;7.85;;
51238;SDS011;38154;47.548;18.828;2022-10-31T14:55:53;13.15;;;6.80;;
51238;SDS011;38154;47.548;18.828;2022-10-31T14:58:22;14.00;;;6.47;;
51238;SDS011;38154;47.548;18.828;2022-10-31T15:00:55;15.40;;;6.68;;
51238;SDS011;38154;47.548;18.828;2022-10-31T15:03:24;17.55;;;6.22;;
51238;SDS011;38154;47.548;18.828;2022-10-31T15:06:02;21.02;;;8.63;;
51238;SDS011;38154;47.548;18.828;2022-10-31T15:11:16;16.00;;;7.87;;
51238;SDS011;38154;47.548;18.828;2022-10-31T15:13:43;18.52;;;7.45;;
51238;SDS011;38154;47.548;18.828;2022-10-31T15:16:21;14.15;;;7.25;;
51238;SDS011;38154;47.548;18.828;2022-10-31T15:18:59;14.55;;;6.47;;
51238;SDS011;38154;47.548;18.828;2022-10-31T15:21:29;14.20;;;6.65;;
51238;SDS011;38154;47.548;18.828;2022-10-31T15:23:56;16.20;;;7.15;;
51238;SDS011;38154;47.548;18.828;2022-10-31T15:26:31;18.33;;;8.27;;
51238;SDS011;38154;47.548;18.828;2022-10-31T15:29:04;18.27;;;7.72;;
51238;SDS011;38154;47.548;18.828;2022-10-31T15:31:31;13.82;;;6.75;;
51238;SDS011;38154;47.548;18.828;2022-10-31T15:34:02;17.80;;;8.15;;
51238;SDS011;38154;47.548;18.828;2022-10-31T15:36:32;27.73;;;9.32;;
51238;SDS011;38154;47.548;18.828;2022-10-31T15:38:58;19.70;;;8.07;;
51238;SDS011;38154;47.548;18.828;2022-10-31T15:44:18;15.40;;;7.32;;
51238;SDS011;38154;47.548;18.828;2022-10-31T15:49:31;16.83;;;8.38;;
51238;SDS011;38154;47.548;18.828;2022-10-31T15:52:04;14.27;;;7.28;;
51238;SDS011;38154;47.548;18.828;2022-10-31T15:54:43;23.15;;;8.55;;
51238;SDS011;38154;47.548;18.828;2022-10-31T15:57:12;20.37;;;8.25;;
51238;SDS011;38154;47.548;18.828;2022-10-31T15:59:38;17.37;;;7.33;;
51238;SDS011;38154;47.548;18.828;2022-10-31T16:02:11;18.60;;;8.27;;
51238;SDS011;38154;47.548;18.828;2022-10-31T16:04:47;22.65;;;8.23;;
51238;SDS011;38154;47.548;18.828;2022-10-31T16:07:15;15.75;;;7.72;;
51238;SDS011;38154;47.548;18.828;2022-10-31T16:09:59;16.25;;;8.30;;
51238;SDS011;38154;47.548;18.828;2022-10-31T16:12:36;15.90;;;7.70;;
51238;SDS011;38154;47.548;18.828;2022-10-31T16:15:13;17.95;;;9.10;;
51238;SDS011;38154;47.548;18.828;2022-10-31T16:17:40;23.08;;;8.73;;
51238;SDS011;38154;47.548;18.828;2022-10-31T16:20:26;18.00;;;8.13;;
51238;SDS011;38154;47.548;18.828;2022-10-31T16:22:55;22.00;;;7.87;;
51238;SDS011;38154;47.548;18.828;2022-10-31T16:27:57;23.27;;;9.88;;
51238;SDS011;38154;47.548;18.828;2022-10-31T16:38:53;19.40;;;7.80;;
51238;SDS011;38154;47.548;18.828;2022-10-31T16:41:20;23.25;;;8.63;;
51238;SDS011;38154;47.548;18.828;2022-10-31T16:43:46;22.15;;;7.65;;
51238;SDS011;38154;47.548;18.828;2022-10-31T16:46:12;17.40;;;9.50;;
51238;SDS011;38154;47.548;18.828;2022-10-31T16:48:40;20.62;;;8.55;;
51238;SDS011;38154;47.548;18.828;2022-10-31T16:51:07;20.40;;;8.93;;
51238;SDS011;38154;47.548;18.828;2022-10-31T16:53:33;15.40;;;7.75;;
51238;SDS011;38154;47.548;18.828;2022-10-31T16:56:01;19.73;;;8.77;;
51238;SDS011;38154;47.548;18.828;2022-10-31T16:58:29;16.45;;;7.20;;
51238;SDS011;38154;47.548;18.828;2022-10-31T17:01:01;25.73;;;9.57;;
51238;SDS011;38154;47.548;18.828;2022-10-31T17:03:31;20.92;;;8.90;;
51238;SDS011;38154;47.548;18.828;2022-10-31T17:05:56;21.37;;;8.60;;
51238;SDS011;38154;47.548;18.828;2022-10-31T17:08:22;18.97;;;8.67;;
51238;SDS011;38154;47.548;18.828;2022-10-31T17:10:52;18.48;;;8.05;;
51238;SDS011;38154;47.548;18.828;2022-10-31T17:13:21;19.08;;;8.13;;
51238;SDS011;38154;47.548;18.828;2022-10-31T17:15:50;16.25;;;8.13;;